sensor_id;sensor_type;location;lat;lon;timestamp;temperature;humidity
4578;DHT22;2301;47.354;8.528;2023-08-24T00:01:16;27.20;59.40
4578;DHT22;2301;47.354;8.528;2023-08-24T00:03:44;27.20;59.50
4578;DHT22;2301;47.354;8.528;2023-08-24T00:06:11;27.20;59.80
4578;DHT22;2301;47.354;8.528;2023-08-24T00:08:39;27.20;59.70
4578;DHT22;2301;47.354;8.528;2023-08-24T00:11:07;27.20;59.70
4578;DHT22;2301;47.354;8.528;2023-08-24T00:13:34;27.10;59.70
4578;DHT22;2301;47.354;8.528;2023-08-24T00:16:01;27.10;60.00
4578;DHT22;2301;47.354;8.528;2023-08-24T00:18:29;27.10;60.40
4578;DHT22;2301;47.354;8.528;2023-08-24T00:20:56;27.00;60.10
4578;DHT22;2301;47.354;8.528;2023-08-24T00:23:24;27.00;60.10
4578;DHT22;2301;47.354;8.528;2023-08-24T00:25:52;27.00;59.90
4578;DHT22;2301;47.354;8.528;2023-08-24T00:28:19;27.00;60.00
4578;DHT22;2301;47.354;8.528;2023-08-24T00:30:46;27.00;60.00
4578;DHT22;2301;47.354;8.528;2023-08-24T00:33:13;27.00;60.20
4578;DHT22;2301;47.354;8.528;2023-08-24T00:35:40;26.90;60.10
4578;DHT22;2301;47.354;8.528;2023-08-24T00:38:07;26.90;60.50
4578;DHT22;2301;47.354;8.528;2023-08-24T00:40:33;26.90;60.90
4578;DHT22;2301;47.354;8.528;2023-08-24T00:43:02;26.90;60.70
4578;DHT22;2301;47.354;8.528;2023-08-24T00:45:30;26.90;60.80
4578;DHT22;2301;47.354;8.528;2023-08-24T00:48:00;26.80;60.60
4578;DHT22;2301;47.354;8.528;2023-08-24T00:50:27;26.80;60.70
4578;DHT22;2301;47.354;8.528;2023-08-24T00:52:54;26.80;60.70
4578;DHT22;2301;47.354;8.528;2023-08-24T00:55:21;26.80;60.50
4578;DHT22;2301;47.354;8.528;2023-08-24T00:57:48;26.80;60.50
4578;DHT22;2301;47.354;8.528;2023-08-24T01:00:18;26.80;60.50
4578;DHT22;2301;47.354;8.528;2023-08-24T01:02:45;26.80;60.60
4578;DHT22;2301;47.354;8.528;2023-08-24T01:05:12;26.80;60.80
4578;DHT22;2301;47.354;8.528;2023-08-24T01:07:40;26.70;61.00
4578;DHT22;2301;47.354;8.528;2023-08-24T01:10:09;26.70;61.10
4578;DHT22;2301;47.354;8.528;2023-08-24T01:12:46;26.70;61.30
4578;DHT22;2301;47.354;8.528;2023-08-24T01:15:19;26.60;60.80
4578;DHT22;2301;47.354;8.528;2023-08-24T01:17:50;26.60;61.00
4578;DHT22;2301;47.354;8.528;2023-08-24T01:20:18;26.60;61.50
4578;DHT22;2301;47.354;8.528;2023-08-24T01:22:53;26.60;61.70
4578;DHT22;2301;47.354;8.528;2023-08-24T01:25:26;26.60;61.50
4578;DHT22;2301;47.354;8.528;2023-08-24T01:27:59;26.60;61.60
4578;DHT22;2301;47.354;8.528;2023-08-24T01:30:26;26.50;61.70
4578;DHT22;2301;47.354;8.528;2023-08-24T01:32:53;26.50;62.10
4578;DHT22;2301;47.354;8.528;2023-08-24T01:35:20;26.50;62.10
4578;DHT22;2301;47.354;8.528;2023-08-24T01:37:47;26.50;62.00
4578;DHT22;2301;47.354;8.528;2023-08-24T01:40:19;26.40;62.20
4578;DHT22;2301;47.354;8.528;2023-08-24T01:42:53;26.40;62.80
4578;DHT22;2301;47.354;8.528;2023-08-24T01:45:27;26.40;62.20
4578;DHT22;2301;47.354;8.528;2023-08-24T01:47:59;26.40;62.10
4578;DHT22;2301;47.354;8.528;2023-08-24T01:50:29;26.40;62.20
4578;DHT22;2301;47.354;8.528;2023-08-24T01:52:57;26.40;62.10
4578;DHT22;2301;47.354;8.528;2023-08-24T01:55:24;26.40;62.10
4578;DHT22;2301;47.354;8.528;2023-08-24T01:57:51;26.30;62.10
4578;DHT22;2301;47.354;8.528;2023-08-24T02:00:18;26.30;62.40
4578;DHT22;2301;47.354;8.528;2023-08-24T02:02:46;26.30;62.60
4578;DHT22;2301;47.354;8.528;2023-08-24T02:05:13;26.30;62.50
4578;DHT22;2301;47.354;8.528;2023-08-24T02:07:40;26.30;62.70
4578;DHT22;2301;47.354;8.528;2023-08-24T02:10:07;26.30;62.80
4578;DHT22;2301;47.354;8.528;2023-08-24T02:12:34;26.20;62.50
4578;DHT22;2301;47.354;8.528;2023-08-24T02:15:01;26.20;62.70
4578;DHT22;2301;47.354;8.528;2023-08-24T02:17:28;26.20;62.70
4578;DHT22;2301;47.354;8.528;2023-08-24T02:19:56;26.20;62.70
4578;DHT22;2301;47.354;8.528;2023-08-24T02:22:23;26.20;62.70
4578;DHT22;2301;47.354;8.528;2023-08-24T02:24:50;26.20;63.10
4578;DHT22;2301;47.354;8.528;2023-08-24T02:27:17;26.20;62.90
4578;DHT22;2301;47.354;8.528;2023-08-24T02:29:44;26.20;63.10
4578;DHT22;2301;47.354;8.528;2023-08-24T02:32:11;26.20;62.90
4578;DHT22;2301;47.354;8.528;2023-08-24T02:34:38;26.10;63.10
4578;DHT22;2301;47.354;8.528;2023-08-24T02:37:06;26.20;63.10
4578;DHT22;2301;47.354;8.528;2023-08-24T02:39:33;26.10;63.10
4578;DHT22;2301;47.354;8.528;2023-08-24T02:42:00;26.10;63.30
4578;DHT22;2301;47.354;8.528;2023-08-24T02:44:28;26.10;63.40
4578;DHT22;2301;47.354;8.528;2023-08-24T02:46:54;26.10;63.50
4578;DHT22;2301;47.354;8.528;2023-08-24T02:49:21;26.00;64.10
4578;DHT22;2301;47.354;8.528;2023-08-24T02:51:48;26.20;64.20
4578;DHT22;2301;47.354;8.528;2023-08-24T02:54:16;26.00;63.40
4578;DHT22;2301;47.354;8.528;2023-08-24T02:56:43;26.00;63.30
4578;DHT22;2301;47.354;8.528;2023-08-24T02:59:11;26.00;63.30
4578;DHT22;2301;47.354;8.528;2023-08-24T03:01:38;26.00;63.10
4578;DHT22;2301;47.354;8.528;2023-08-24T03:04:06;26.00;63.30
4578;DHT22;2301;47.354;8.528;2023-08-24T03:06:33;26.00;63.30
4578;DHT22;2301;47.354;8.528;2023-08-24T03:09:01;26.00;63.50
4578;DHT22;2301;47.354;8.528;2023-08-24T03:11:30;26.00;63.70
4578;DHT22;2301;47.354;8.528;2023-08-24T03:13:57;25.90;63.60
4578;DHT22;2301;47.354;8.528;2023-08-24T03:16:25;25.90;63.70
4578;DHT22;2301;47.354;8.528;2023-08-24T03:18:52;25.90;63.60
4578;DHT22;2301;47.354;8.528;2023-08-24T03:21:19;25.90;63.70
4578;DHT22;2301;47.354;8.528;2023-08-24T03:23:46;25.90;63.70
4578;DHT22;2301;47.354;8.528;2023-08-24T03:26:13;25.90;63.90
4578;DHT22;2301;47.354;8.528;2023-08-24T03:28:42;25.90;63.90
4578;DHT22;2301;47.354;8.528;2023-08-24T03:31:09;25.90;63.80
4578;DHT22;2301;47.354;8.528;2023-08-24T03:33:36;25.90;64.00
4578;DHT22;2301;47.354;8.528;2023-08-24T03:36:03;25.80;64.50
4578;DHT22;2301;47.354;8.528;2023-08-24T03:38:30;25.80;63.90
4578;DHT22;2301;47.354;8.528;2023-08-24T03:41:00;25.80;64.40
4578;DHT22;2301;47.354;8.528;2023-08-24T03:43:28;25.80;64.40
4578;DHT22;2301;47.354;8.528;2023-08-24T03:45:57;25.80;64.30
4578;DHT22;2301;47.354;8.528;2023-08-24T03:48:23;25.80;64.30
4578;DHT22;2301;47.354;8.528;2023-08-24T03:50:54;25.80;64.40
4578;DHT22;2301;47.354;8.528;2023-08-24T03:53:20;25.80;64.70
4578;DHT22;2301;47.354;8.528;2023-08-24T03:55:48;25.80;64.70
4578;DHT22;2301;47.354;8.528;2023-08-24T03:58:15;25.80;64.70
4578;DHT22;2301;47.354;8.528;2023-08-24T04:00:42;25.70;64.60
4578;DHT22;2301;47.354;8.528;2023-08-24T04:03:11;25.80;64.80
4578;DHT22;2301;47.354;8.528;2023-08-24T04:05:38;25.70;64.60
4578;DHT22;2301;47.354;8.528;2023-08-24T04:08:05;25.80;64.80
4578;DHT22;2301;47.354;8.528;2023-08-24T04:10:33;25.70;64.60
4578;DHT22;2301;47.354;8.528;2023-08-24T04:13:00;25.70;64.50
4578;DHT22;2301;47.354;8.528;2023-08-24T04:15:27;25.70;64.60
4578;DHT22;2301;47.354;8.528;2023-08-24T04:17:54;25.70;64.70
4578;DHT22;2301;47.354;8.528;2023-08-24T04:20:22;25.70;65.00
4578;DHT22;2301;47.354;8.528;2023-08-24T04:22:49;25.70;65.00
4578;DHT22;2301;47.354;8.528;2023-08-24T04:25:16;25.70;64.70
4578;DHT22;2301;47.354;8.528;2023-08-24T04:27:43;25.70;64.80
4578;DHT22;2301;47.354;8.528;2023-08-24T04:30:11;25.70;65.10
4578;DHT22;2301;47.354;8.528;2023-08-24T04:32:43;25.70;64.90
4578;DHT22;2301;47.354;8.528;2023-08-24T04:35:11;25.70;64.90
4578;DHT22;2301;47.354;8.528;2023-08-24T04:37:39;25.70;65.00
4578;DHT22;2301;47.354;8.528;2023-08-24T04:40:06;25.70;64.90
4578;DHT22;2301;47.354;8.528;2023-08-24T04:42:33;25.70;65.00
4578;DHT22;2301;47.354;8.528;2023-08-24T04:45:00;25.70;66.00
4578;DHT22;2301;47.354;8.528;2023-08-24T04:47:28;25.70;65.20
4578;DHT22;2301;47.354;8.528;2023-08-24T04:49:54;25.60;64.70
4578;DHT22;2301;47.354;8.528;2023-08-24T04:52:21;25.60;65.10
4578;DHT22;2301;47.354;8.528;2023-08-24T04:54:50;25.70;65.50
4578;DHT22;2301;47.354;8.528;2023-08-24T04:57:17;25.60;65.20
4578;DHT22;2301;47.354;8.528;2023-08-24T04:59:44;25.70;65.30
4578;DHT22;2301;47.354;8.528;2023-08-24T05:02:11;25.70;65.20
4578;DHT22;2301;47.354;8.528;2023-08-24T05:04:39;25.70;65.10
4578;DHT22;2301;47.354;8.528;2023-08-24T05:07:06;25.70;65.20
4578;DHT22;2301;47.354;8.528;2023-08-24T05:09:33;25.70;65.30
4578;DHT22;2301;47.354;8.528;2023-08-24T05:12:01;25.80;65.40
4578;DHT22;2301;47.354;8.528;2023-08-24T05:14:28;25.80;65.50
4578;DHT22;2301;47.354;8.528;2023-08-24T05:16:55;25.80;65.20
4578;DHT22;2301;47.354;8.528;2023-08-24T05:19:22;25.80;65.40
4578;DHT22;2301;47.354;8.528;2023-08-24T05:21:49;25.80;65.20
4578;DHT22;2301;47.354;8.528;2023-08-24T05:24:15;25.80;65.30
4578;DHT22;2301;47.354;8.528;2023-08-24T05:26:42;25.80;65.70
4578;DHT22;2301;47.354;8.528;2023-08-24T05:29:10;25.80;66.10
4578;DHT22;2301;47.354;8.528;2023-08-24T05:31:37;25.80;66.00
4578;DHT22;2301;47.354;8.528;2023-08-24T05:34:04;25.80;65.70
4578;DHT22;2301;47.354;8.528;2023-08-24T05:36:31;25.80;65.40
4578;DHT22;2301;47.354;8.528;2023-08-24T05:38:58;25.80;65.70
4578;DHT22;2301;47.354;8.528;2023-08-24T05:41:25;25.90;65.70
4578;DHT22;2301;47.354;8.528;2023-08-24T05:43:52;25.90;65.60
4578;DHT22;2301;47.354;8.528;2023-08-24T05:46:20;25.90;65.80
4578;DHT22;2301;47.354;8.528;2023-08-24T05:48:47;25.90;65.60
4578;DHT22;2301;47.354;8.528;2023-08-24T05:51:14;25.90;65.30
4578;DHT22;2301;47.354;8.528;2023-08-24T05:53:41;25.90;65.50
4578;DHT22;2301;47.354;8.528;2023-08-24T05:56:08;26.00;65.50
4578;DHT22;2301;47.354;8.528;2023-08-24T05:58:34;26.00;65.50
4578;DHT22;2301;47.354;8.528;2023-08-24T06:01:01;26.00;65.90
4578;DHT22;2301;47.354;8.528;2023-08-24T06:03:30;26.00;65.60
4578;DHT22;2301;47.354;8.528;2023-08-24T06:06:02;25.90;65.90
4578;DHT22;2301;47.354;8.528;2023-08-24T06:08:29;26.00;66.10
4578;DHT22;2301;47.354;8.528;2023-08-24T06:10:57;26.00;66.20
4578;DHT22;2301;47.354;8.528;2023-08-24T06:13:24;26.00;67.10
4578;DHT22;2301;47.354;8.528;2023-08-24T06:15:51;26.00;66.60
4578;DHT22;2301;47.354;8.528;2023-08-24T06:18:18;26.00;66.60
4578;DHT22;2301;47.354;8.528;2023-08-24T06:20:46;26.00;66.60
4578;DHT22;2301;47.354;8.528;2023-08-24T06:23:14;26.00;66.50
4578;DHT22;2301;47.354;8.528;2023-08-24T06:25:41;26.00;66.50
4578;DHT22;2301;47.354;8.528;2023-08-24T06:28:08;26.00;66.30
4578;DHT22;2301;47.354;8.528;2023-08-24T06:30:37;26.10;66.30
4578;DHT22;2301;47.354;8.528;2023-08-24T06:33:05;26.10;66.30
4578;DHT22;2301;47.354;8.528;2023-08-24T06:35:32;26.20;66.30
4578;DHT22;2301;47.354;8.528;2023-08-24T06:38:01;26.20;66.20
4578;DHT22;2301;47.354;8.528;2023-08-24T06:40:29;26.40;66.00
4578;DHT22;2301;47.354;8.528;2023-08-24T06:42:56;26.40;65.90
4578;DHT22;2301;47.354;8.528;2023-08-24T06:45:23;26.50;65.70
4578;DHT22;2301;47.354;8.528;2023-08-24T06:47:50;26.50;65.60
4578;DHT22;2301;47.354;8.528;2023-08-24T06:50:18;26.50;65.50
4578;DHT22;2301;47.354;8.528;2023-08-24T06:52:45;26.60;65.50
4578;DHT22;2301;47.354;8.528;2023-08-24T06:55:14;26.60;65.40
4578;DHT22;2301;47.354;8.528;2023-08-24T06:57:41;26.60;65.30
4578;DHT22;2301;47.354;8.528;2023-08-24T07:00:08;26.70;65.20
4578;DHT22;2301;47.354;8.528;2023-08-24T07:02:38;26.80;65.20
4578;DHT22;2301;47.354;8.528;2023-08-24T07:05:06;26.90;65.20
4578;DHT22;2301;47.354;8.528;2023-08-24T07:07:37;27.00;64.80
4578;DHT22;2301;47.354;8.528;2023-08-24T07:10:07;27.20;64.80
4578;DHT22;2301;47.354;8.528;2023-08-24T07:12:39;27.30;64.10
4578;DHT22;2301;47.354;8.528;2023-08-24T07:15:10;27.40;63.40
4578;DHT22;2301;47.354;8.528;2023-08-24T07:17:37;27.40;63.60
4578;DHT22;2301;47.354;8.528;2023-08-24T07:20:05;27.40;63.60
4578;DHT22;2301;47.354;8.528;2023-08-24T07:22:33;27.50;63.00
4578;DHT22;2301;47.354;8.528;2023-08-24T07:25:00;27.60;62.80
4578;DHT22;2301;47.354;8.528;2023-08-24T07:27:30;27.70;62.60
4578;DHT22;2301;47.354;8.528;2023-08-24T07:29:59;27.80;62.60
4578;DHT22;2301;47.354;8.528;2023-08-24T07:32:26;28.00;62.60
4578;DHT22;2301;47.354;8.528;2023-08-24T07:34:54;28.30;62.00
4578;DHT22;2301;47.354;8.528;2023-08-24T07:37:22;28.40;61.10
4578;DHT22;2301;47.354;8.528;2023-08-24T07:39:49;28.80;62.00
4578;DHT22;2301;47.354;8.528;2023-08-24T07:42:19;29.10;60.40
4578;DHT22;2301;47.354;8.528;2023-08-24T07:44:46;29.30;59.10
4578;DHT22;2301;47.354;8.528;2023-08-24T07:47:15;29.40;59.40
4578;DHT22;2301;47.354;8.528;2023-08-24T07:49:42;29.60;59.30
4578;DHT22;2301;47.354;8.528;2023-08-24T07:52:10;29.90;59.00
4578;DHT22;2301;47.354;8.528;2023-08-24T07:54:37;30.10;58.20
4578;DHT22;2301;47.354;8.528;2023-08-24T07:57:04;30.40;57.80
4578;DHT22;2301;47.354;8.528;2023-08-24T07:59:32;30.70;57.10
4578;DHT22;2301;47.354;8.528;2023-08-24T08:01:59;31.20;56.40
4578;DHT22;2301;47.354;8.528;2023-08-24T08:04:27;31.70;55.60
4578;DHT22;2301;47.354;8.528;2023-08-24T08:06:55;32.10;54.50
4578;DHT22;2301;47.354;8.528;2023-08-24T08:09:28;32.40;53.70
4578;DHT22;2301;47.354;8.528;2023-08-24T08:11:56;32.40;52.90
4578;DHT22;2301;47.354;8.528;2023-08-24T08:14:23;32.30;52.90
4578;DHT22;2301;47.354;8.528;2023-08-24T08:16:50;32.10;53.10
4578;DHT22;2301;47.354;8.528;2023-08-24T08:19:17;32.10;53.40
4578;DHT22;2301;47.354;8.528;2023-08-24T08:21:46;32.60;53.30
4578;DHT22;2301;47.354;8.528;2023-08-24T08:24:13;33.20;52.70
4578;DHT22;2301;47.354;8.528;2023-08-24T08:26:40;33.70;52.00
4578;DHT22;2301;47.354;8.528;2023-08-24T08:29:07;34.10;50.70
4578;DHT22;2301;47.354;8.528;2023-08-24T08:31:34;34.30;50.50
4578;DHT22;2301;47.354;8.528;2023-08-24T08:34:01;34.50;49.90
4578;DHT22;2301;47.354;8.528;2023-08-24T08:36:51;34.60;49.90
4578;DHT22;2301;47.354;8.528;2023-08-24T08:39:18;34.80;49.20
4578;DHT22;2301;47.354;8.528;2023-08-24T08:41:46;35.10;48.50
4578;DHT22;2301;47.354;8.528;2023-08-24T08:44:14;35.60;48.40
4578;DHT22;2301;47.354;8.528;2023-08-24T08:46:42;36.20;47.00
4578;DHT22;2301;47.354;8.528;2023-08-24T08:49:11;36.70;45.90
4578;DHT22;2301;47.354;8.528;2023-08-24T08:51:41;36.80;45.70
4578;DHT22;2301;47.354;8.528;2023-08-24T08:54:09;36.70;45.40
4578;DHT22;2301;47.354;8.528;2023-08-24T08:56:37;36.70;45.50
4578;DHT22;2301;47.354;8.528;2023-08-24T08:59:07;36.60;45.30
4578;DHT22;2301;47.354;8.528;2023-08-24T09:01:36;36.50;44.60
4578;DHT22;2301;47.354;8.528;2023-08-24T09:04:05;36.50;45.00
4578;DHT22;2301;47.354;8.528;2023-08-24T09:06:33;36.70;44.80
4578;DHT22;2301;47.354;8.528;2023-08-24T09:11:42;37.10;44.30
4578;DHT22;2301;47.354;8.528;2023-08-24T09:14:12;37.30;43.90
4578;DHT22;2301;47.354;8.528;2023-08-24T09:16:41;37.60;43.60
4578;DHT22;2301;47.354;8.528;2023-08-24T09:19:11;37.80;44.10
4578;DHT22;2301;47.354;8.528;2023-08-24T09:21:39;37.80;42.70
4578;DHT22;2301;47.354;8.528;2023-08-24T09:24:08;37.80;42.70
4578;DHT22;2301;47.354;8.528;2023-08-24T09:26:36;37.90;42.60
4578;DHT22;2301;47.354;8.528;2023-08-24T09:29:13;38.10;42.80
4578;DHT22;2301;47.354;8.528;2023-08-24T09:31:40;38.30;42.70
4578;DHT22;2301;47.354;8.528;2023-08-24T09:36:52;38.50;42.10
4578;DHT22;2301;47.354;8.528;2023-08-24T09:39:20;38.60;42.00
4578;DHT22;2301;47.354;8.528;2023-08-24T09:41:49;38.80;42.20
4578;DHT22;2301;47.354;8.528;2023-08-24T09:44:18;39.10;41.60
4578;DHT22;2301;47.354;8.528;2023-08-24T09:46:45;39.30;40.90
4578;DHT22;2301;47.354;8.528;2023-08-24T09:49:14;39.40;40.10
4578;DHT22;2301;47.354;8.528;2023-08-24T09:51:41;39.50;40.20
4578;DHT22;2301;47.354;8.528;2023-08-24T09:54:10;39.40;39.40
4578;DHT22;2301;47.354;8.528;2023-08-24T09:56:40;39.50;40.10
4578;DHT22;2301;47.354;8.528;2023-08-24T09:59:11;39.50;39.80
4578;DHT22;2301;47.354;8.528;2023-08-24T10:01:43;39.50;40.20
4578;DHT22;2301;47.354;8.528;2023-08-24T10:04:14;39.50;40.20
4578;DHT22;2301;47.354;8.528;2023-08-24T10:06:48;39.50;40.00
4578;DHT22;2301;47.354;8.528;2023-08-24T10:09:22;39.40;39.80
4578;DHT22;2301;47.354;8.528;2023-08-24T10:12:02;39.40;39.70
4578;DHT22;2301;47.354;8.528;2023-08-24T10:14:32;39.50;39.40
4578;DHT22;2301;47.354;8.528;2023-08-24T10:17:06;39.50;39.80
4578;DHT22;2301;47.354;8.528;2023-08-24T10:19:35;39.70;39.70
4578;DHT22;2301;47.354;8.528;2023-08-24T10:22:05;39.80;40.20
4578;DHT22;2301;47.354;8.528;2023-08-24T10:24:35;40.10;39.60
4578;DHT22;2301;47.354;8.528;2023-08-24T10:27:03;40.30;39.60
4578;DHT22;2301;47.354;8.528;2023-08-24T10:29:30;40.50;39.20
4578;DHT22;2301;47.354;8.528;2023-08-24T10:31:57;40.60;39.40
4578;DHT22;2301;47.354;8.528;2023-08-24T10:34:26;40.50;39.40
4578;DHT22;2301;47.354;8.528;2023-08-24T10:36:52;40.50;39.40
4578;DHT22;2301;47.354;8.528;2023-08-24T10:39:27;40.40;38.90
4578;DHT22;2301;47.354;8.528;2023-08-24T10:41:54;40.40;38.70
4578;DHT22;2301;47.354;8.528;2023-08-24T10:44:24;40.20;39.40
4578;DHT22;2301;47.354;8.528;2023-08-24T10:47:13;40.20;39.40
4578;DHT22;2301;47.354;8.528;2023-08-24T10:49:57;40.20;39.20
4578;DHT22;2301;47.354;8.528;2023-08-24T10:52:24;39.90;39.40
4578;DHT22;2301;47.354;8.528;2023-08-24T10:54:53;39.90;40.20
4578;DHT22;2301;47.354;8.528;2023-08-24T10:57:22;39.90;40.50
4578;DHT22;2301;47.354;8.528;2023-08-24T11:00:04;40.30;40.20
4578;DHT22;2301;47.354;8.528;2023-08-24T11:02:42;40.60;39.50
4578;DHT22;2301;47.354;8.528;2023-08-24T11:05:18;40.70;39.40
4578;DHT22;2301;47.354;8.528;2023-08-24T11:07:49;40.90;38.90
4578;DHT22;2301;47.354;8.528;2023-08-24T11:10:16;41.00;38.70
4578;DHT22;2301;47.354;8.528;2023-08-24T11:13:06;40.90;38.70
4578;DHT22;2301;47.354;8.528;2023-08-24T11:15:33;41.00;38.60
4578;DHT22;2301;47.354;8.528;2023-08-24T11:18:21;40.90;38.60
4578;DHT22;2301;47.354;8.528;2023-08-24T11:20:51;40.80;38.80
4578;DHT22;2301;47.354;8.528;2023-08-24T11:23:19;40.60;38.70
4578;DHT22;2301;47.354;8.528;2023-08-24T11:25:49;40.30;39.10
4578;DHT22;2301;47.354;8.528;2023-08-24T11:28:18;40.00;39.20
4578;DHT22;2301;47.354;8.528;2023-08-24T11:30:46;39.90;40.00
4578;DHT22;2301;47.354;8.528;2023-08-24T11:33:14;39.80;40.10
4578;DHT22;2301;47.354;8.528;2023-08-24T11:35:42;39.70;40.40
4578;DHT22;2301;47.354;8.528;2023-08-24T11:38:11;39.80;41.00
4578;DHT22;2301;47.354;8.528;2023-08-24T11:40:39;39.80;40.70
4578;DHT22;2301;47.354;8.528;2023-08-24T11:43:06;39.90;40.70
4578;DHT22;2301;47.354;8.528;2023-08-24T11:45:33;39.80;40.40
4578;DHT22;2301;47.354;8.528;2023-08-24T11:48:02;39.70;40.40
4578;DHT22;2301;47.354;8.528;2023-08-24T11:50:30;39.70;40.70
4578;DHT22;2301;47.354;8.528;2023-08-24T11:52:57;39.70;40.50
4578;DHT22;2301;47.354;8.528;2023-08-24T11:55:26;39.70;41.00
4578;DHT22;2301;47.354;8.528;2023-08-24T11:57:53;39.70;39.80
4578;DHT22;2301;47.354;8.528;2023-08-24T12:00:21;39.60;39.70
4578;DHT22;2301;47.354;8.528;2023-08-24T12:02:49;39.60;39.70
4578;DHT22;2301;47.354;8.528;2023-08-24T12:05:21;39.60;40.00
4578;DHT22;2301;47.354;8.528;2023-08-24T12:07:48;39.60;39.50
4578;DHT22;2301;47.354;8.528;2023-08-24T12:10:16;39.50;39.50
4578;DHT22;2301;47.354;8.528;2023-08-24T12:12:44;39.60;39.10
4578;DHT22;2301;47.354;8.528;2023-08-24T12:15:18;39.60;39.80
4578;DHT22;2301;47.354;8.528;2023-08-24T12:17:48;39.70;39.60
4578;DHT22;2301;47.354;8.528;2023-08-24T12:20:19;39.70;39.40
4578;DHT22;2301;47.354;8.528;2023-08-24T12:22:52;39.70;39.10
4578;DHT22;2301;47.354;8.528;2023-08-24T12:25:23;39.70;38.90
4578;DHT22;2301;47.354;8.528;2023-08-24T12:27:53;39.70;39.70
4578;DHT22;2301;47.354;8.528;2023-08-24T12:30:43;39.50;39.20
4578;DHT22;2301;47.354;8.528;2023-08-24T12:33:21;39.60;40.10
4578;DHT22;2301;47.354;8.528;2023-08-24T12:35:48;39.50;39.90
4578;DHT22;2301;47.354;8.528;2023-08-24T12:38:15;39.40;38.90
4578;DHT22;2301;47.354;8.528;2023-08-24T12:40:42;39.20;39.90
4578;DHT22;2301;47.354;8.528;2023-08-24T12:43:10;39.30;40.20
4578;DHT22;2301;47.354;8.528;2023-08-24T12:45:37;39.30;38.90
4578;DHT22;2301;47.354;8.528;2023-08-24T12:48:04;39.30;39.70
4578;DHT22;2301;47.354;8.528;2023-08-24T12:50:32;39.40;40.00
4578;DHT22;2301;47.354;8.528;2023-08-24T12:52:59;39.50;40.00
4578;DHT22;2301;47.354;8.528;2023-08-24T12:55:26;39.50;39.50
4578;DHT22;2301;47.354;8.528;2023-08-24T12:57:53;39.40;38.80
4578;DHT22;2301;47.354;8.528;2023-08-24T13:00:22;39.50;39.00
4578;DHT22;2301;47.354;8.528;2023-08-24T13:02:49;39.40;38.80
4578;DHT22;2301;47.354;8.528;2023-08-24T13:05:16;39.40;38.70
4578;DHT22;2301;47.354;8.528;2023-08-24T13:07:43;39.50;38.90
4578;DHT22;2301;47.354;8.528;2023-08-24T13:10:10;39.50;38.90
4578;DHT22;2301;47.354;8.528;2023-08-24T13:12:37;39.60;39.20
4578;DHT22;2301;47.354;8.528;2023-08-24T13:15:05;39.60;38.60
4578;DHT22;2301;47.354;8.528;2023-08-24T13:17:34;39.70;39.10
4578;DHT22;2301;47.354;8.528;2023-08-24T13:20:01;39.70;39.20
4578;DHT22;2301;47.354;8.528;2023-08-24T13:22:29;39.70;40.50
4578;DHT22;2301;47.354;8.528;2023-08-24T13:24:56;39.70;39.40
4578;DHT22;2301;47.354;8.528;2023-08-24T13:27:23;39.70;39.10
4578;DHT22;2301;47.354;8.528;2023-08-24T13:29:50;39.50;37.90
4578;DHT22;2301;47.354;8.528;2023-08-24T13:32:17;39.50;38.10
4578;DHT22;2301;47.354;8.528;2023-08-24T13:34:46;39.50;38.00
4578;DHT22;2301;47.354;8.528;2023-08-24T13:37:13;39.50;37.50
4578;DHT22;2301;47.354;8.528;2023-08-24T13:39:40;39.50;38.20
4578;DHT22;2301;47.354;8.528;2023-08-24T13:42:07;39.40;38.40
4578;DHT22;2301;47.354;8.528;2023-08-24T13:44:34;39.30;37.90
4578;DHT22;2301;47.354;8.528;2023-08-24T13:47:01;39.20;37.90
4578;DHT22;2301;47.354;8.528;2023-08-24T13:49:28;39.30;38.70
4578;DHT22;2301;47.354;8.528;2023-08-24T13:51:56;39.20;37.50
4578;DHT22;2301;47.354;8.528;2023-08-24T13:54:23;39.20;37.70
4578;DHT22;2301;47.354;8.528;2023-08-24T13:56:52;39.20;37.90
4578;DHT22;2301;47.354;8.528;2023-08-24T13:59:19;39.20;38.10
4578;DHT22;2301;47.354;8.528;2023-08-24T14:01:46;39.20;38.40
4578;DHT22;2301;47.354;8.528;2023-08-24T14:04:14;39.20;37.60
4578;DHT22;2301;47.354;8.528;2023-08-24T14:06:40;39.20;37.70
4578;DHT22;2301;47.354;8.528;2023-08-24T14:09:09;39.00;37.30
4578;DHT22;2301;47.354;8.528;2023-08-24T14:11:36;39.00;37.20
4578;DHT22;2301;47.354;8.528;2023-08-24T14:14:03;38.90;37.80
4578;DHT22;2301;47.354;8.528;2023-08-24T14:16:29;38.80;37.70
4578;DHT22;2301;47.354;8.528;2023-08-24T14:18:56;38.80;38.30
4578;DHT22;2301;47.354;8.528;2023-08-24T14:21:23;38.80;38.40
4578;DHT22;2301;47.354;8.528;2023-08-24T14:23:50;38.80;38.90
4578;DHT22;2301;47.354;8.528;2023-08-24T14:26:21;38.70;39.50
4578;DHT22;2301;47.354;8.528;2023-08-24T14:28:48;38.60;39.20
4578;DHT22;2301;47.354;8.528;2023-08-24T14:31:16;38.60;39.40
4578;DHT22;2301;47.354;8.528;2023-08-24T14:33:44;38.40;40.00
4578;DHT22;2301;47.354;8.528;2023-08-24T14:36:14;38.20;40.40
4578;DHT22;2301;47.354;8.528;2023-08-24T14:38:43;38.30;41.30
4578;DHT22;2301;47.354;8.528;2023-08-24T14:41:11;38.20;40.70
4578;DHT22;2301;47.354;8.528;2023-08-24T14:43:40;38.10;40.60
4578;DHT22;2301;47.354;8.528;2023-08-24T14:46:07;38.00;40.50
4578;DHT22;2301;47.354;8.528;2023-08-24T14:48:34;38.00;40.80
4578;DHT22;2301;47.354;8.528;2023-08-24T14:51:02;37.80;40.70
4578;DHT22;2301;47.354;8.528;2023-08-24T14:53:29;37.80;41.10
4578;DHT22;2301;47.354;8.528;2023-08-24T14:55:56;37.80;40.70
4578;DHT22;2301;47.354;8.528;2023-08-24T14:58:23;37.80;40.20
4578;DHT22;2301;47.354;8.528;2023-08-24T15:00:54;37.70;39.90
4578;DHT22;2301;47.354;8.528;2023-08-24T15:03:21;37.70;40.20
4578;DHT22;2301;47.354;8.528;2023-08-24T15:05:56;37.70;40.00
4578;DHT22;2301;47.354;8.528;2023-08-24T15:08:23;37.60;40.00
4578;DHT22;2301;47.354;8.528;2023-08-24T15:10:53;37.50;40.40
4578;DHT22;2301;47.354;8.528;2023-08-24T15:13:20;37.50;40.30
4578;DHT22;2301;47.354;8.528;2023-08-24T15:15:47;37.50;40.30
4578;DHT22;2301;47.354;8.528;2023-08-24T15:18:17;37.40;40.30
4578;DHT22;2301;47.354;8.528;2023-08-24T15:20:46;37.40;39.90
4578;DHT22;2301;47.354;8.528;2023-08-24T15:23:23;37.30;40.00
4578;DHT22;2301;47.354;8.528;2023-08-24T15:25:56;37.30;40.60
4578;DHT22;2301;47.354;8.528;2023-08-24T15:28:34;37.30;41.00
4578;DHT22;2301;47.354;8.528;2023-08-24T15:31:02;37.40;40.70
4578;DHT22;2301;47.354;8.528;2023-08-24T15:33:31;37.40;40.10
4578;DHT22;2301;47.354;8.528;2023-08-24T15:35:58;37.50;40.40
4578;DHT22;2301;47.354;8.528;2023-08-24T15:38:25;37.50;39.90
4578;DHT22;2301;47.354;8.528;2023-08-24T15:40:53;37.50;40.20
4578;DHT22;2301;47.354;8.528;2023-08-24T15:43:20;37.40;40.70
4578;DHT22;2301;47.354;8.528;2023-08-24T15:45:49;37.50;40.30
4578;DHT22;2301;47.354;8.528;2023-08-24T15:48:16;37.50;40.20
4578;DHT22;2301;47.354;8.528;2023-08-24T15:50:45;37.40;40.10
4578;DHT22;2301;47.354;8.528;2023-08-24T15:53:12;37.40;40.40
4578;DHT22;2301;47.354;8.528;2023-08-24T15:55:38;37.30;40.50
4578;DHT22;2301;47.354;8.528;2023-08-24T15:58:06;37.30;41.90
4578;DHT22;2301;47.354;8.528;2023-08-24T16:00:33;37.20;41.60
4578;DHT22;2301;47.354;8.528;2023-08-24T16:03:00;37.00;41.80
4578;DHT22;2301;47.354;8.528;2023-08-24T16:05:27;36.90;42.60
4578;DHT22;2301;47.354;8.528;2023-08-24T16:07:55;36.80;44.40
4578;DHT22;2301;47.354;8.528;2023-08-24T16:10:22;36.60;44.30
4578;DHT22;2301;47.354;8.528;2023-08-24T16:12:49;36.50;43.80
4578;DHT22;2301;47.354;8.528;2023-08-24T16:15:16;36.40;44.20